Time;durP1;ratioP1;P1;durP2;ratioP2;P2;SDS_P1;SDS_P2;PMS_P1;PMS_P2;Temp;Humidity;BMP_temperature;BMP_pressure;BME280_temperature;BME280_humidity;BME280_pressure;Samples;Min_cycle;Max_cycle;Signal;HPM_P1;HPM_P2
2022/05/04 00:02:02;;;;;;;;;;;;;;;7.61;52.25488;102147.3;;;;-79
2022/05/04 00:03:10;;;;;;;3;1.5;;;;;;;;;;;;;-81
2022/05/04 00:07:02;;;;;;;;;;;;;;;7.54;52.40137;102148;;;;-78
2022/05/04 00:12:02;;;;;;;;;;;;;;;7.51;52.35352;102149.2;;;;-79
2022/05/04 00:17:02;;;;;;;;;;;;;;;7.45;52.39063;102148.3;;;;-79
2022/05/04 00:22:02;;;;;;;;;;;;;;;7.45;52.26855;102151.6;;;;-78
2022/05/04 00:27:05;;;;;;;;;;;;;;;7.42;52.3877;102151;;;;-80
2022/05/04 00:32:03;;;;;;;;;;;;;;;7.41;52.47559;102145.8;;;;-79
2022/05/04 00:33:10;;;;;;;3.5;1.5;;;;;;;;;;;;;-77
2022/05/04 00:37:02;;;;;;;;;;;;;;;7.41;52.38574;102148.7;;;;-81
2022/05/04 00:42:08;;;;;;;;;;;;;;;7.42;52.27637;102148.2;;;;-79
2022/05/04 00:47:11;;;;;;;;;;;;;;;7.43;52.2334;102144.4;;;;-79
2022/05/04 00:52:08;;;;;;;;;;;;;;;7.42;52.27637;102147.7;;;;-79
2022/05/04 00:57:02;;;;;;;;;;;;;;;7.44;52.33398;102143.6;;;;-79
2022/05/04 01:02:02;;;;;;;;;;;;;;;7.4;52.23047;102138.1;;;;-80
2022/05/04 01:03:10;;;;;;;3.6;1.6;;;;;;;;;;;;;-80
2022/05/04 01:07:02;;;;;;;;;;;;;;;7.38;52.20605;102137.3;;;;-79
2022/05/04 01:12:05;;;;;;;;;;;;;;;7.33;52.28809;102131.8;;;;-80
2022/05/04 01:17:02;;;;;;;;;;;;;;;7.3;52.25098;102132.8;;;;-80
2022/05/04 01:22:03;;;;;;;;;;;;;;;7.26;52.32422;102134.5;;;;-79
2022/05/04 01:27:02;;;;;;;;;;;;;;;7.23;52.43066;102132.9;;;;-79
2022/05/04 01:32:05;;;;;;;;;;;;;;;7.2;52.4375;102126.9;;;;-77
2022/05/04 01:33:11;;;;;;;4.1;1.6;;;;;;;;;;;;;-79
2022/05/04 01:37:02;;;;;;;;;;;;;;;7.16;52.40039;102125.8;;;;-79
2022/05/04 01:42:13;;;;;;;;;;;;;;;7.14;52.375;102127;;;;-79
2022/05/04 01:47:02;;;;;;;;;;;;;;;7.12;52.42871;102119.1;;;;-78
2022/05/04 01:52:02;;;;;;;;;;;;;;;7.07;52.48828;102114;;;;-77
2022/05/04 01:57:02;;;;;;;;;;;;;;;7.01;52.50391;102117.1;;;;-79
2022/05/04 02:02:02;;;;;;;;;;;;;;;6.93;52.49414;102115.8;;;;-77
2022/05/04 02:03:10;;;;;;;5.3;1.7;;;;;;;;;;;;;-79
2022/05/04 02:07:07;;;;;;;;;;;;;;;6.85;52.68262;102111.9;;;;-79
2022/05/04 02:12:02;;;;;;;;;;;;;;;6.74;52.68164;102104.1;;;;-79
2022/05/04 02:17:02;;;;;;;;;;;;;;;6.64;52.79102;102107.8;;;;-80
2022/05/04 02:22:02;;;;;;;;;;;;;;;6.54;52.75586;102105.3;;;;-80
2022/05/04 02:27:02;;;;;;;;;;;;;;;6.44;52.85352;102105.8;;;;-82
2022/05/04 02:32:03;;;;;;;;;;;;;;;6.36;52.93359;102102.8;;;;-81
2022/05/04 02:33:10;;;;;;;4.7;1.7;;;;;;;;;;;;;-79
2022/05/04 02:42:02;;;;;;;;;;;;;;;6.18;52.9873;102096.6;;;;-80
2022/05/04 02:47:02;;;;;;;;;;;;;;;6.11;53.09961;102097.2;;;;-80
2022/05/04 02:52:03;;;;;;;;;;;;;;;6.04;53.1582;102093.7;;;;-78
2022/05/04 02:57:02;;;;;;;;;;;;;;;5.97;53.25;102089.3;;;;-78
2022/05/04 03:03:10;;;;;;;3.2;1.5;;;;;;;;;;;;;-80
2022/05/04 03:07:02;;;;;;;;;;;;;;;5.81;53.25098;102085.4;;;;-78
2022/05/04 03:12:02;;;;;;;;;;;;;;;5.76;53.23438;102085.5;;;;-78
2022/05/04 03:17:02;;;;;;;;;;;;;;;5.66;53.41016;102079.1;;;;-80
2022/05/04 03:22:02;;;;;;;;;;;;;;;5.6;53.47949;102085;;;;-78
2022/05/04 03:27:02;;;;;;;;;;;;;;;5.52;53.62305;102079;;;;-79
2022/05/04 03:32:03;;;;;;;;;;;;;;;5.45;53.69141;102074.3;;;;-81
2022/05/04 03:33:10;;;;;;;4.2;1.7;;;;;;;;;;;;;-80
2022/05/04 03:37:02;;;;;;;;;;;;;;;5.39;53.77148;102076;;;;-79
2022/05/04 03:42:02;;;;;;;;;;;;;;;5.3;53.94824;102067.3;;;;-80
2022/05/04 03:47:02;;;;;;;;;;;;;;;5.25;53.82129;102069.3;;;;-80
2022/05/04 03:52:02;;;;;;;;;;;;;;;5.14;54.02832;102064;;;;-78
2022/05/04 03:57:02;;;;;;;;;;;;;;;5.1;53.98926;102074.5;;;;-81
2022/05/04 04:02:05;;;;;;;;;;;;;;;5.01;54.0332;102076.3;;;;-79
2022/05/04 04:03:10;;;;;;;4.7;1.7;;;;;;;;;;;;;-80
2022/05/04 04:07:03;;;;;;;;;;;;;;;4.99;54.06348;102071.3;;;;-79
2022/05/04 04:12:02;;;;;;;;;;;;;;;4.93;54.16699;102069.8;;;;-79
2022/05/04 04:17:02;;;;;;;;;;;;;;;4.84;54.16699;102068.9;;;;-80
2022/05/04 04:22:02;;;;;;;;;;;;;;;4.79;54.29199;102073.6;;;;-79
2022/05/04 04:27:02;;;;;;;;;;;;;;;4.76;54.18848;102073.7;;;;-81
2022/05/04 04:32:02;;;;;;;;;;;;;;;4.73;54.38281;102082.8;;;;-80
2022/05/04 04:33:11;;;;;;;5.3;1.8;;;;;;;;;;;;;-78
2022/05/04 04:37:03;;;;;;;;;;;;;;;4.67;54.29883;102084.4;;;;-80
2022/05/04 04:42:05;;;;;;;;;;;;;;;4.68;54.37598;102089.1;;;;-78
2022/05/04 04:47:05;;;;;;;;;;;;;;;4.66;54.1875;102089.7;;;;-78
2022/05/04 04:52:04;;;;;;;;;;;;;;;4.62;54.34668;102094;;;;-80
2022/05/04 04:57:03;;;;;;;;;;;;;;;4.63;54.44727;102094.4;;;;-81
2022/05/04 05:02:02;;;;;;;;;;;;;;;4.65;54.30762;102089.9;;;;-80
2022/05/04 05:03:10;;;;;;;6.3;1.9;;;;;;;;;;;;;-79
2022/05/04 05:07:02;;;;;;;;;;;;;;;4.65;54.3291;102087.2;;;;-79
2022/05/04 05:12:04;;;;;;;;;;;;;;;4.64;54.36133;102087.8;;;;-81
2022/05/04 05:17:02;;;;;;;;;;;;;;;4.67;54.25488;102088.9;;;;-79
2022/05/04 05:22:05;;;;;;;;;;;;;;;4.71;54.24805;102085.6;;;;-79
2022/05/04 05:27:02;;;;;;;;;;;;;;;4.78;54.19043;102086.3;;;;-79
2022/05/04 05:32:04;;;;;;;;;;;;;;;4.86;54.09082;102081.9;;;;-77
2022/05/04 05:33:10;;;;;;;4;1.8;;;;;;;;;;;;;-80
2022/05/04 05:37:02;;;;;;;;;;;;;;;5.13;53.89355;102085.6;;;;-77
2022/05/04 05:42:05;;;;;;;;;;;;;;;5.79;52.70898;102080.3;;;;-79
2022/05/04 05:47:02;;;;;;;;;;;;;;;6.5;51.59082;102068.2;;;;-79
2022/05/04 05:52:02;;;;;;;;;;;;;;;7.11;50.78906;102064.5;;;;-80
2022/05/04 05:57:04;;;;;;;;;;;;;;;7.66;49.95508;102069.7;;;;-80
2022/05/04 06:02:02;;;;;;;;;;;;;;;8.32;49.33203;102075.5;;;;-80
2022/05/04 06:03:13;;;;;;;3.6;1.8;;;;;;;;;;;;;-80
2022/05/04 06:07:02;;;;;;;;;;;;;;;9;48.11719;102079.9;;;;-80
2022/05/04 06:12:03;;;;;;;;;;;;;;;9.57;47.72363;102075.1;;;;-80
2022/05/04 06:17:02;;;;;;;;;;;;;;;10.06;47.33203;102070.7;;;;-79
2022/05/04 06:22:12;;;;;;;;;;;;;;;10.48;46.62891;102070.1;;;;-79
2022/05/04 06:27:02;;;;;;;;;;;;;;;10.93;45.94922;102070.4;;;;-78
2022/05/04 06:37:02;;;;;;;;;;;;;;;11.82;44.78906;102070.7;;;;-81
2022/05/04 06:42:02;;;;;;;;;;;;;;;12.37;44.25;102071.9;;;;-79
2022/05/04 06:47:02;;;;;;;;;;;;;;;12.84;43.63379;102073.4;;;;-81
2022/05/04 06:52:02;;;;;;;;;;;;;;;13.36;43.14551;102075.7;;;;-82
2022/05/04 06:57:03;;;;;;;;;;;;;;;13.81;42.23242;102076.2;;;;-79
2022/05/04 07:02:05;;;;;;;;;;;;;;;14.18;42.16504;102073.2;;;;-80
2022/05/04 07:03:10;;;;;;;3.8;2;;;;;;;;;;;;;-80
2022/05/04 07:07:02;;;;;;;;;;;;;;;14.49;42.09375;102076.5;;;;-79
2022/05/04 07:12:05;;;;;;;;;;;;;;;14.88;41.69043;102077.1;;;;-82
2022/05/04 07:17:05;;;;;;;;;;;;;;;15.17;42.11426;102074.2;;;;-82
2022/05/04 07:22:06;;;;;;;;;;;;;;;15.52;41.43359;102074.7;;;;-84
2022/05/04 07:27:08;;;;;;;;;;;;;;;15.86;41.20508;102077.4;;;;-83
2022/05/04 07:32:04;;;;;;;;;;;;;;;16.15;40.95996;102073.9;;;;-81
2022/05/04 07:33:13;;;;;;;4.9;1.9;;;;;;;;;;;;;-79
2022/05/04 07:37:02;;;;;;;;;;;;;;;16.32;40.8291;102076.2;;;;-77
2022/05/04 07:47:04;;;;;;;;;;;;;;;16.8;40.95215;102078.6;;;;-78
2022/05/04 07:52:02;;;;;;;;;;;;;;;16.77;38.7793;102081.4;;;;-73
2022/05/04 07:57:02;;;;;;;;;;;;;;;16.07;39.20605;102078.7;;;;-75
2022/05/04 08:07:02;;;;;;;;;;;;;;;15.95;39.85449;102080.9;;;;-72
2022/05/04 08:12:02;;;;;;;;;;;;;;;16.35;38.99414;102081.8;;;;-76
2022/05/04 08:17:05;;;;;;;;;;;;;;;16.25;38.59863;102086.7;;;;-77
2022/05/04 08:22:12;;;;;;;;;;;;;;;16.21;38.62891;102082.8;;;;-77
2022/05/04 08:27:02;;;;;;;;;;;;;;;16.08;38.40137;102081.3;;;;-76
2022/05/04 08:32:02;;;;;;;;;;;;;;;16.2;38.52539;102082.7;;;;-74
2022/05/04 08:33:15;;;;;;;7.6;2.7;;;;;;;;;;;;;-74
2022/05/04 08:37:02;;;;;;;;;;;;;;;16.41;38.00977;102085.9;;;;-75
2022/05/04 08:42:03;;;;;;;;;;;;;;;16.18;38.46777;102084.5;;;;-75
2022/05/04 08:58:05;;;;;;;;;;;;;;;16.59;38.14063;102082;;;;-78
2022/05/04 09:03:06;;;;;;;;;;;;;;;16.61;37.75586;102081.3;;;;-78
2022/05/04 09:03:18;;;;;;;8;2.7;;;;;;;;;;;;;-79
2022/05/04 09:08:06;;;;;;;;;;;;;;;17;37.32324;102081.2;;;;-73
2022/05/04 09:13:05;;;;;;;;;;;;;;;17.21;36.91895;102079;;;;-74
2022/05/04 09:18:06;;;;;;;;;;;;;;;17.23;37.0918;102069.4;;;;-74
2022/05/04 09:23:07;;;;;;;;;;;;;;;17.34;36.81641;102072;;;;-74
2022/05/04 09:28:05;;;;;;;;;;;;;;;17.54;36.36523;102068.8;;;;-74
2022/05/04 09:33:05;;;;;;;;;;;;;;;17.55;35.97949;102070.1;;;;-73
2022/05/04 09:33:19;;;;;;;3.5;2.2;;;;;;;;;;;;;-74
2022/05/04 09:48:06;;;;;;;;;;;;;;;18.41;34.57617;102059.2;;;;-75
2022/05/04 09:53:05;;;;;;;;;;;;;;;18.62;34.25;102052.3;;;;-74
2022/05/04 09:58:05;;;;;;;;;;;;;;;18.28;34.14453;102052.1;;;;-73
2022/05/04 10:03:05;;;;;;;;;;;;;;;18.45;34.80859;102045.8;;;;-74
2022/05/04 10:03:24;;;;;;;1214.2;47.4;;;;;;;;;;;;;-73
2022/05/04 10:08:06;;;;;;;;;;;;;;;19.06;34.38672;102040.5;;;;-76
2022/05/04 10:13:05;;;;;;;;;;;;;;;19.23;34.25195;102039.5;;;;-74
2022/05/04 10:18:07;;;;;;;;;;;;;;;20.94;34.37305;102036.6;;;;-75
2022/05/04 10:23:06;;;;;;;;;;;;;;;22.24;32.95215;102032;;;;-73
2022/05/04 10:28:11;;;;;;;;;;;;;;;23;33.52832;102029.3;;;;-75
2022/05/04 10:33:06;;;;;;;;;;;;;;;23.55;32.27441;102027.3;;;;-74
2022/05/04 10:33:26;;;;;;;182.1;9.3;;;;;;;;;;;;;-74
2022/05/04 10:38:15;;;;;;;;;;;;;;;24.06;32.40332;102025.9;;;;-75
2022/05/04 10:43:06;;;;;;;;;;;;;;;24.49;32.17969;102024.1;;;;-73
2022/05/04 10:48:25;;;;;;;;;;;;;;;24.95;33.03613;102021.3;;;;-77
2022/05/04 10:53:05;;;;;;;;;;;;;;;25.32;33.66699;102017.5;;;;-76
2022/05/04 10:58:15;;;;;;;;;;;;;;;25.63;33.96875;102012.6;;;;-76
2022/05/04 11:03:08;;;;;;;;;;;;;;;26.02;31.74316;102012.3;;;;-77
2022/05/04 11:03:28;;;;;;;37.9;4.2;;;;;;;;;;;;;-78
2022/05/04 11:08:09;;;;;;;;;;;;;;;26.43;31.14355;102013.6;;;;-77
2022/05/04 11:13:10;;;;;;;;;;;;;;;26.71;33.5957;102009.4;;;;-71
2022/05/04 11:18:05;;;;;;;;;;;;;;;26.86;33.22363;102007.4;;;;-70
2022/05/04 11:23:05;;;;;;;;;;;;;;;27.07;33.5293;102012.5;;;;-70
2022/05/04 11:28:05;;;;;;;;;;;;;;;27.33;32.19727;102010;;;;-71
2022/05/04 11:33:08;;;;;;;;;;;;;;;27.62;32.95313;102012.1;;;;-69
2022/05/04 11:33:33;;;;;;;11.3;2.3;;;;;;;;;;;;;-70
2022/05/04 11:38:05;;;;;;;;;;;;;;;27.88;32.77344;102006.4;;;;-70
2022/05/04 11:43:05;;;;;;;;;;;;;;;27.98;32.89746;102009.4;;;;-70
2022/05/04 11:48:05;;;;;;;;;;;;;;;27.94;32.25195;102008.8;;;;-70
2022/05/04 11:53:05;;;;;;;;;;;;;;;27.88;32.43457;102002.3;;;;-71
2022/05/04 11:58:10;;;;;;;;;;;;;;;27.96;31.27344;101995.4;;;;-69
2022/05/04 12:03:05;;;;;;;;;;;;;;;28.25;31.12891;101997.7;;;;-71
2022/05/04 12:03:35;;;;;;;7.6;2;;;;;;;;;;;;;-71
2022/05/04 12:08:06;;;;;;;;;;;;;;;28.41;31.30469;101997.6;;;;-71
2022/05/04 12:13:05;;;;;;;;;;;;;;;28.37;29.39551;101993.9;;;;-71
2022/05/04 12:18:07;;;;;;;;;;;;;;;28.28;28.875;101993;;;;-71
2022/05/04 12:23:05;;;;;;;;;;;;;;;28.17;29.64063;101987.9;;;;-70
2022/05/04 12:28:05;;;;;;;;;;;;;;;28.13;30.44336;101982;;;;-69
2022/05/04 12:33:14;;;;;;;;;;;;;;;28.15;28.60938;101987.6;;;;-72
2022/05/04 12:33:39;;;;;;;6.2;2.1;;;;;;;;;;;;;-70
2022/05/04 12:38:05;;;;;;;;;;;;;;;28.13;29.04102;101984;;;;-74
2022/05/04 12:43:06;;;;;;;;;;;;;;;28.05;29.03613;101978.8;;;;-73
2022/05/04 12:48:05;;;;;;;;;;;;;;;27.93;29.83398;101975.6;;;;-73
2022/05/04 12:53:05;;;;;;;;;;;;;;;27.79;30.45605;101976.5;;;;-74
2022/05/04 12:58:05;;;;;;;;;;;;;;;27.63;30.80664;101979.5;;;;-74
2022/05/04 13:03:07;;;;;;;;;;;;;;;27.53;29.75;101974.7;;;;-73
2022/05/04 13:03:43;;;;;;;6.3;2.1;;;;;;;;;;;;;-73
2022/05/04 13:08:05;;;;;;;;;;;;;;;27.43;29.41602;101975;;;;-73
2022/05/04 13:13:05;;;;;;;;;;;;;;;27.35;30.23926;101974.7;;;;-71
2022/05/04 13:18:07;;;;;;;;;;;;;;;27.29;31.02832;101975.5;;;;-73
2022/05/04 13:23:06;;;;;;;;;;;;;;;27.32;30.85547;101978.5;;;;-73
2022/05/04 13:28:05;;;;;;;;;;;;;;;27.3;31.15723;101970.4;;;;-74
2022/05/04 13:33:05;;;;;;;;;;;;;;;27.32;31.36816;101967.1;;;;-71
2022/05/04 13:33:47;;;;;;;6;2.1;;;;;;;;;;;;;-71
2022/05/04 13:38:05;;;;;;;;;;;;;;;27.37;30.9873;101966.7;;;;-75
2022/05/04 13:43:05;;;;;;;;;;;;;;;27.42;30.25684;101966.5;;;;-72
2022/05/04 13:48:05;;;;;;;;;;;;;;;25.69;26.45313;101960.3;;;;-70
2022/05/04 13:53:20;;;;;;;;;;;;;;;24.6;29.24316;101965.5;;;;-70
2022/05/04 13:58:05;;;;;;;;;;;;;;;25.67;29.3252;101962.7;;;;-70
2022/05/04 14:03:05;;;;;;;;;;;;;;;26.19;29.42773;101954.4;;;;-69
2022/05/04 14:03:50;;;;;;;6.8;2.1;;;;;;;;;;;;;-70
2022/05/04 14:08:05;;;;;;;;;;;;;;;26.25;29.78223;101953;;;;-70
2022/05/04 14:13:05;;;;;;;;;;;;;;;26.15;30.05469;101950.5;;;;-69
2022/05/04 14:18:05;;;;;;;;;;;;;;;26.03;30.10449;101956.2;;;;-70
2022/05/04 14:23:08;;;;;;;;;;;;;;;25.87;30.48926;101955.9;;;;-69
2022/05/04 14:28:05;;;;;;;;;;;;;;;25.77;30.4707;101958.5;;;;-70
2022/05/04 14:33:05;;;;;;;;;;;;;;;25.6;30.84277;101954.3;;;;-69
2022/05/04 14:33:55;;;;;;;5.3;2;;;;;;;;;;;;;-71
2022/05/04 14:38:05;;;;;;;;;;;;;;;25.44;31.16797;101951.4;;;;-71
2022/05/04 14:43:07;;;;;;;;;;;;;;;25.31;31.00879;101948.7;;;;-70
2022/05/04 14:48:05;;;;;;;;;;;;;;;25.19;31.61523;101947.2;;;;-70
2022/05/04 14:53:07;;;;;;;;;;;;;;;25.06;31.61719;101950.4;;;;-69
2022/05/04 14:58:05;;;;;;;;;;;;;;;24.88;31.38477;101946.4;;;;-71
2022/05/04 15:08:05;;;;;;;;;;;;;;;24.53;32.16016;101943.7;;;;-70
2022/05/04 15:13:05;;;;;;;;;;;;;;;24.41;32.32422;101943.5;;;;-72
2022/05/04 15:18:11;;;;;;;;;;;;;;;24.31;32.41016;101941.6;;;;-70
2022/05/04 15:23:05;;;;;;;;;;;;;;;24.25;32.05957;101937.8;;;;-69
2022/05/04 15:28:05;;;;;;;;;;;;;;;24.21;32.07813;101937.1;;;;-69
2022/05/04 15:33:05;;;;;;;;;;;;;;;24.08;32.38281;101933.6;;;;-74
2022/05/04 15:34:01;;;;;;;6.5;2.3;;;;;;;;;;;;;-74
2022/05/04 15:38:05;;;;;;;;;;;;;;;23.95;32.8125;101941.7;;;;-77
2022/05/04 15:43:06;;;;;;;;;;;;;;;23.79;32.93945;101944.5;;;;-77
2022/05/04 15:48:05;;;;;;;;;;;;;;;23.64;32.74316;101944.7;;;;-75
2022/05/04 15:53:08;;;;;;;;;;;;;;;23.52;32.90723;101938.6;;;;-76
2022/05/04 15:58:10;;;;;;;;;;;;;;;23.48;33.11328;101934.7;;;;-82
2022/05/04 16:04:05;;;;;;;6.3;2.1;;;;;;;;;;;;;-79
2022/05/04 16:08:06;;;;;;;;;;;;;;;23.36;33.79688;101930.4;;;;-81
2022/05/04 16:13:05;;;;;;;;;;;;;;;23.26;33.65137;101928.6;;;;-81
2022/05/04 16:23:07;;;;;;;;;;;;;;;22.99;34.17285;101923.1;;;;-81
2022/05/04 16:28:05;;;;;;;;;;;;;;;22.85;34.09277;101920.1;;;;-81
2022/05/04 16:33:05;;;;;;;;;;;;;;;22.7;34.3584;101912.1;;;;-82
2022/05/04 16:34:07;;;;;;;3.8;1.9;;;;;;;;;;;;;-81
2022/05/04 16:38:05;;;;;;;;;;;;;;;22.56;34.55566;101913.4;;;;-82
2022/05/04 16:43:05;;;;;;;;;;;;;;;22.42;34.55566;101908.9;;;;-81
2022/05/04 16:48:05;;;;;;;;;;;;;;;22.23;34.81641;101908.2;;;;-83
2022/05/04 16:53:05;;;;;;;;;;;;;;;22.02;34.93945;101905.8;;;;-81
2022/05/04 16:58:17;;;;;;;;;;;;;;;21.81;34.95703;101908;;;;-80
2022/05/04 17:03:05;;;;;;;;;;;;;;;20.64;31.8584;101909;;;;-80
2022/05/04 17:04:18;;;;;;;5.4;1.6;;;;;;;;;;;;;-80
2022/05/04 17:08:06;;;;;;;;;;;;;;;19.27;33.13281;101907.8;;;;-82
2022/05/04 17:13:07;;;;;;;;;;;;;;;18.76;33.4834;101910.4;;;;-78
2022/05/04 17:18:27;;;;;;;;;;;;;;;18.26;33.95996;101903.7;;;;-81
2022/05/04 17:23:05;;;;;;;;;;;;;;;18.24;34.86035;101901.8;;;;-81
2022/05/04 17:28:05;;;;;;;;;;;;;;;18.6;34.5918;101905.7;;;;-79
2022/05/04 17:38:05;;;;;;;;;;;;;;;18.58;34.77246;101907.8;;;;-80
2022/05/04 17:43:06;;;;;;;;;;;;;;;18.44;34.91016;101903.5;;;;-80
2022/05/04 17:48:05;;;;;;;;;;;;;;;18.26;35.06738;101909.3;;;;-81
2022/05/04 17:53:07;;;;;;;;;;;;;;;18.07;35.21191;101910.7;;;;-81
2022/05/04 17:58:05;;;;;;;;;;;;;;;17.87;35.36816;101916.6;;;;-81
2022/05/04 18:04:15;;;;;;;3.7;1.6;;;;;;;;;;;;;-79
2022/05/04 18:08:05;;;;;;;;;;;;;;;17.44;35.70898;101917.5;;;;-81
2022/05/04 18:13:07;;;;;;;;;;;;;;;17.24;35.80664;101933;;;;-80
2022/05/04 18:18:05;;;;;;;;;;;;;;;17.02;35.7998;101926.8;;;;-80
2022/05/04 18:23:05;;;;;;;;;;;;;;;16.82;36.04492;101937.1;;;;-80
2022/05/04 18:28:06;;;;;;;;;;;;;;;16.62;36.07324;101938.4;;;;-81
2022/05/04 18:33:05;;;;;;;;;;;;;;;16.42;36.37598;101946.4;;;;-80
2022/05/04 18:34:17;;;;;;;4.6;1.8;;;;;;;;;;;;;-82
2022/05/04 18:38:05;;;;;;;;;;;;;;;16.21;36.6084;101948.2;;;;-82
2022/05/04 18:43:08;;;;;;;;;;;;;;;16.02;36.86523;101951.2;;;;-81
2022/05/04 18:48:05;;;;;;;;;;;;;;;15.8;37.17578;101952.5;;;;-80
2022/05/04 18:53:05;;;;;;;;;;;;;;;15.58;37.36035;101951.7;;;;-81
2022/05/04 18:58:05;;;;;;;;;;;;;;;15.36;37.72852;101946;;;;-80
2022/05/04 19:03:05;;;;;;;;;;;;;;;15.16;38.00488;101952.1;;;;-82
2022/05/04 19:04:20;;;;;;;3.2;1.8;;;;;;;;;;;;;-80
2022/05/04 19:08:05;;;;;;;;;;;;;;;14.94;38.22363;101956.6;;;;-81
2022/05/04 19:13:05;;;;;;;;;;;;;;;14.74;38.56738;101964.5;;;;-81
2022/05/04 19:18:05;;;;;;;;;;;;;;;14.54;38.83301;101974.9;;;;-82
2022/05/04 19:23:08;;;;;;;;;;;;;;;14.33;39.2207;101971.9;;;;-80
2022/05/04 19:28:05;;;;;;;;;;;;;;;14.12;39.58594;101977.3;;;;-79
2022/05/04 19:33:05;;;;;;;;;;;;;;;13.91;39.95117;101981.7;;;;-80
2022/05/04 19:34:23;;;;;;;4.7;2.2;;;;;;;;;;;;;-81
2022/05/04 19:38:07;;;;;;;;;;;;;;;13.72;40.29492;101989.3;;;;-79
2022/05/04 19:43:06;;;;;;;;;;;;;;;13.53;40.6377;101998.7;;;;-81
2022/05/04 19:48:05;;;;;;;;;;;;;;;13.35;40.96973;102006.1;;;;-81
2022/05/04 19:53:05;;;;;;;;;;;;;;;13.18;41.3252;102010.4;;;;-82
2022/05/04 19:58:07;;;;;;;;;;;;;;;13;41.53418;102019;;;;-80
2022/05/04 20:03:07;;;;;;;;;;;;;;;12.84;41.84473;102017.9;;;;-81
2022/05/04 20:04:21;;;;;;;4.1;2.4;;;;;;;;;;;;;-80
2022/05/04 20:08:05;;;;;;;;;;;;;;;12.7;42.19141;102021.6;;;;-81
2022/05/04 20:13:05;;;;;;;;;;;;;;;12.57;42.53906;102026.4;;;;-81
2022/05/04 20:18:05;;;;;;;;;;;;;;;12.47;42.77637;102025.9;;;;-81
2022/05/04 20:23:10;;;;;;;;;;;;;;;12.34;42.84277;102026.5;;;;-82
2022/05/04 20:28:06;;;;;;;;;;;;;;;12.24;43.16992;102033.9;;;;-80
2022/05/04 20:33:05;;;;;;;;;;;;;;;12.12;43.30469;102038.9;;;;-81
2022/05/04 20:34:21;;;;;;;5.9;2.8;;;;;;;;;;;;;-81
2022/05/04 20:43:06;;;;;;;;;;;;;;;11.91;43.68652;102037.9;;;;-79
2022/05/04 20:48:05;;;;;;;;;;;;;;;11.8;43.75391;102039.5;;;;-78
2022/05/04 20:53:06;;;;;;;;;;;;;;;11.69;43.7998;102044.7;;;;-80
2022/05/04 20:58:05;;;;;;;;;;;;;;;11.59;44.02441;102043.6;;;;-79
2022/05/04 21:03:06;;;;;;;;;;;;;;;11.5;44.17285;102052;;;;-81
2022/05/04 21:04:22;;;;;;;4.4;2.4;;;;;;;;;;;;;-80
2022/05/04 21:08:06;;;;;;;;;;;;;;;11.41;44.28613;102051.4;;;;-80
2022/05/04 21:13:07;;;;;;;;;;;;;;;11.32;44.33301;102048;;;;-81
2022/05/04 21:18:05;;;;;;;;;;;;;;;11.25;44.60645;102049.5;;;;-80
2022/05/04 21:23:05;;;;;;;;;;;;;;;11.17;44.58789;102051;;;;-82
2022/05/04 21:28:05;;;;;;;;;;;;;;;11.08;44.82422;102052.1;;;;-80
2022/05/04 21:33:05;;;;;;;;;;;;;;;11.02;45.22168;102051.3;;;;-79
2022/05/04 21:34:23;;;;;;;5.9;2.8;;;;;;;;;;;;;-81
2022/05/04 21:38:05;;;;;;;;;;;;;;;10.96;45.21387;102052.4;;;;-79
2022/05/04 21:43:06;;;;;;;;;;;;;;;10.88;45.22852;102057;;;;-81
2022/05/04 21:48:08;;;;;;;;;;;;;;;10.79;45.40918;102057.5;;;;-80
2022/05/04 21:53:05;;;;;;;;;;;;;;;10.73;45.58301;102051.9;;;;-81
2022/05/04 21:58:05;;;;;;;;;;;;;;;10.68;45.59961;102053.5;;;;-82
2022/05/04 22:03:06;;;;;;;;;;;;;;;10.59;45.8584;102055.8;;;;-79
2022/05/04 22:04:25;;;;;;;5.7;2.7;;;;;;;;;;;;;-81
2022/05/04 22:08:05;;;;;;;;;;;;;;;10.49;45.71387;102052.1;;;;-82
2022/05/04 22:18:05;;;;;;;;;;;;;;;10.35;45.9668;102055.2;;;;-80
2022/05/04 22:23:05;;;;;;;;;;;;;;;10.27;45.94824;102055.1;;;;-82
2022/05/04 22:28:08;;;;;;;;;;;;;;;10.19;45.91699;102053;;;;-81
2022/05/04 22:33:09;;;;;;;;;;;;;;;10.09;45.96191;102047.5;;;;-80
2022/05/04 22:34:25;;;;;;;7.8;2.7;;;;;;;;;;;;;-80
2022/05/04 22:38:10;;;;;;;;;;;;;;;10.02;46.05566;102053.9;;;;-79
2022/05/04 22:43:05;;;;;;;;;;;;;;;9.94;46.16992;102052.9;;;;-81
2022/05/04 22:48:06;;;;;;;;;;;;;;;9.88;46.26465;102056.9;;;;-81
2022/05/04 22:53:05;;;;;;;;;;;;;;;9.81;46.32227;102052.7;;;;-81
2022/05/04 22:58:05;;;;;;;;;;;;;;;9.76;46.26172;102049.8;;;;-79
2022/05/04 23:03:05;;;;;;;;;;;;;;;9.67;46.47559;102060.5;;;;-81
2022/05/04 23:04:26;;;;;;;5.8;2.7;;;;;;;;;;;;;-80
2022/05/04 23:08:05;;;;;;;;;;;;;;;9.6;46.43457;102063.5;;;;-82
2022/05/04 23:13:05;;;;;;;;;;;;;;;9.54;46.61621;102069.9;;;;-79
2022/05/04 23:18:06;;;;;;;;;;;;;;;9.47;46.86621;102071.8;;;;-81
2022/05/04 23:23:08;;;;;;;;;;;;;;;9.37;46.69824;102077.5;;;;-80
2022/05/04 23:28:06;;;;;;;;;;;;;;;9.33;47.10645;102080.1;;;;-81
2022/05/04 23:33:06;;;;;;;;;;;;;;;9.25;47.20996;102079.6;;;;-80
2022/05/04 23:34:27;;;;;;;7.6;3;;;;;;;;;;;;;-81
2022/05/04 23:38:06;;;;;;;;;;;;;;;9.19;47.40527;102082.7;;;;-78
2022/05/04 23:43:05;;;;;;;;;;;;;;;9.11;47.55176;102078.9;;;;-82
2022/05/04 23:48:05;;;;;;;;;;;;;;;9.04;47.4541;102078.2;;;;-81
2022/05/04 23:53:06;;;;;;;;;;;;;;;8.96;47.5127;102076.6;;;;-75
2022/05/04 23:58:05;;;;;;;;;;;;;;;8.88;47.64941;102069.2;;;;-76
